createdAt,value
2022-11-09T00:02:40.303Z,30.20
2022-11-09T00:07:47.268Z,34.10
2022-11-09T00:12:50.804Z,32.10
2022-11-09T00:17:54.770Z,36.20
2022-11-09T00:22:58.456Z,38.00
2022-11-09T00:28:02.213Z,27.90
2022-11-09T00:33:05.825Z,29.70
2022-11-09T00:38:09.519Z,35.40
2022-11-09T00:43:13.759Z,34.30
2022-11-09T00:48:17.443Z,30.00
2022-11-09T00:53:22.247Z,33.70
2022-11-09T00:58:27.599Z,31.90
2022-11-09T01:03:31.261Z,30.20
2022-11-09T01:08:36.242Z,35.20
2022-11-09T01:13:39.796Z,41.20
2022-11-09T01:18:43.778Z,33.30
2022-11-09T01:23:47.461Z,29.70
2022-11-09T01:28:50.836Z,33.10
2022-11-09T01:33:55.039Z,33.20
2022-11-09T01:38:58.533Z,39.50
2022-11-09T01:44:02.930Z,28.30
2022-11-09T01:49:13.681Z,29.70
2022-11-09T01:54:26.366Z,36.40
2022-11-09T01:59:33.664Z,38.00
2022-11-09T02:04:44.117Z,29.30
2022-11-09T02:09:56.709Z,34.80
2022-11-09T02:15:03.301Z,38.90
2022-11-09T02:20:12.586Z,34.00
2022-11-09T02:25:17.915Z,36.20
2022-11-09T02:30:22.528Z,38.40
2022-11-09T02:35:25.957Z,32.80
2022-11-09T02:40:33.392Z,31.20
2022-11-09T02:45:37.222Z,46.30
2022-11-09T02:50:40.692Z,41.90
2022-11-09T02:55:44.018Z,37.30
2022-11-09T03:00:47.453Z,32.40
2022-11-09T03:05:50.947Z,34.20
2022-11-09T03:10:54.474Z,32.20
2022-11-09T03:15:57.826Z,36.40
2022-11-09T03:21:05.739Z,36.50
2022-11-09T03:26:09.242Z,38.40
2022-11-09T03:31:13.232Z,32.30
2022-11-09T03:36:17.423Z,34.20
2022-11-09T03:41:21.358Z,33.70
2022-11-09T03:46:24.943Z,34.10
2022-11-09T03:51:28.552Z,37.70
2022-11-09T03:56:32.214Z,34.70
2022-11-09T04:01:35.796Z,31.50
2022-11-09T04:06:39.718Z,34.30
2022-11-09T04:11:43.158Z,39.90
2022-11-09T04:16:46.932Z,36.90
2022-11-09T04:21:50.270Z,37.10
2022-11-09T04:26:53.671Z,38.20
2022-11-09T04:31:57.203Z,26.50
2022-11-09T04:37:01.069Z,25.90
2022-11-09T04:42:04.732Z,33.20
2022-11-09T04:47:08.131Z,27.50
2022-11-09T04:52:11.762Z,36.30
2022-11-09T04:57:15.630Z,31.80
2022-11-09T05:02:19.316Z,36.70
2022-11-09T05:07:22.802Z,35.10
2022-11-09T05:12:26.485Z,33.80
2022-11-09T05:17:30.304Z,32.20
2022-11-09T05:22:52.830Z,34.10
2022-11-09T05:27:56.573Z,32.40
2022-11-09T05:33:00.260Z,31.90
2022-11-09T05:38:03.587Z,33.70
2022-11-09T05:43:06.979Z,34.20
2022-11-09T05:48:11.124Z,30.00
2022-11-09T05:53:14.995Z,32.20
2022-11-09T05:58:18.715Z,42.90
2022-11-09T06:03:22.661Z,29.40
2022-11-09T06:08:26.481Z,24.60
2022-11-09T06:13:30.175Z,27.00
2022-11-09T06:18:35.843Z,35.10
2022-11-09T06:23:39.600Z,29.70
2022-11-09T06:28:43.287Z,29.20
2022-11-09T06:33:46.817Z,34.60
2022-11-09T06:38:52.908Z,38.90
2022-11-09T06:43:56.994Z,30.80
2022-11-09T06:49:02.919Z,29.50
2022-11-09T06:54:06.266Z,29.80
2022-11-09T06:59:09.859Z,34.30
2022-11-09T07:04:15.063Z,36.60
2022-11-09T07:09:18.612Z,26.90
2022-11-09T07:14:22.724Z,32.00
2022-11-09T07:19:26.246Z,28.20
2022-11-09T07:24:29.902Z,28.10
2022-11-09T07:29:34.455Z,28.50
2022-11-09T07:34:38.208Z,28.70
2022-11-09T07:39:41.459Z,29.10
2022-11-09T07:44:44.863Z,31.30
2022-11-09T07:49:48.291Z,29.00
2022-11-09T07:54:52.431Z,32.30
2022-11-09T07:59:56.131Z,31.70
2022-11-09T08:04:59.580Z,26.20
2022-11-09T08:10:04.730Z,29.40
2022-11-09T08:15:08.682Z,31.30
2022-11-09T08:20:12.058Z,27.40
2022-11-09T08:25:16.238Z,32.50
2022-11-09T08:30:22.073Z,28.30
2022-11-09T08:35:26.983Z,25.50
2022-11-09T08:40:31.760Z,29.90
2022-11-09T08:45:37.481Z,30.50
2022-11-09T08:50:40.936Z,34.10
2022-11-09T08:55:49.205Z,31.10
2022-11-09T09:00:53.338Z,26.30
2022-11-09T09:05:56.922Z,29.80
2022-11-09T09:11:04.488Z,30.70
2022-11-09T09:16:15.875Z,28.40
2022-11-09T09:21:19.581Z,23.40
2022-11-09T09:26:23.498Z,25.50
2022-11-09T09:31:27.594Z,26.30
2022-11-09T09:36:30.871Z,32.80
2022-11-09T09:42:09.479Z,27.40
2022-11-09T09:47:42.638Z,22.90
2022-11-09T09:53:23.084Z,28.20
2022-11-09T09:58:30.173Z,27.40
2022-11-09T10:03:33.697Z,27.60
2022-11-09T10:08:52.199Z,25.30
2022-11-09T10:14:25.567Z,27.30
2022-11-09T10:20:09.280Z,23.80
2022-11-09T10:25:43.475Z,26.60
2022-11-09T10:30:47.883Z,28.20
2022-11-09T10:36:08.046Z,27.10
2022-11-09T10:41:26.783Z,25.10
2022-11-09T10:46:30.051Z,24.90
2022-11-09T10:51:46.935Z,27.60
2022-11-09T10:57:05.901Z,24.20
2022-11-09T11:02:26.203Z,21.90
2022-11-09T11:07:29.703Z,24.10
2022-11-09T11:12:33.517Z,25.20
2022-11-09T11:17:38.093Z,24.30
2022-11-09T11:22:41.717Z,25.60
2022-11-09T11:27:59.069Z,25.80
2022-11-09T11:33:07.090Z,26.00
2022-11-09T11:38:13.441Z,27.10
2022-11-09T11:43:36.259Z,26.00
2022-11-09T11:49:18.269Z,23.80
2022-11-09T11:54:24.693Z,20.30
2022-11-09T11:59:40.033Z,22.80
2022-11-09T12:05:05.931Z,21.50
2022-11-09T12:10:56.566Z,24.60
2022-11-09T12:16:08.393Z,21.30
2022-11-09T12:21:23.069Z,20.60
2022-11-09T12:27:30.464Z,21.40
2022-11-09T12:32:42.219Z,20.80
2022-11-09T12:37:55.185Z,30.00
2022-11-09T12:43:24.506Z,26.10
2022-11-09T12:48:30.139Z,25.20
2022-11-09T12:53:36.708Z,25.70
2022-11-09T12:58:40.942Z,28.80
2022-11-09T13:03:55.801Z,27.70
2022-11-09T13:09:19.826Z,27.10
2022-11-09T13:14:23.482Z,26.20
2022-11-09T13:19:36.273Z,24.00
2022-11-09T13:24:56.993Z,22.90
2022-11-09T13:30:02.421Z,24.00
2022-11-09T13:35:41.382Z,25.40
2022-11-09T13:40:51.750Z,23.90
2022-11-09T13:45:58.778Z,25.70
2022-11-09T13:51:41.496Z,32.60
2022-11-09T13:56:48.296Z,34.40
2022-11-09T14:01:54.301Z,24.80
2022-11-09T14:07:27.649Z,29.90
2022-11-09T14:12:55.393Z,32.00
2022-11-09T14:18:16.691Z,30.20
2022-11-09T14:23:22.679Z,28.20
2022-11-09T14:28:31.590Z,30.20
2022-11-09T14:33:36.983Z,29.40
2022-11-09T14:38:48.319Z,31.20
2022-11-09T14:43:54.193Z,27.60
2022-11-09T14:49:02.791Z,31.50
2022-11-09T14:54:10.358Z,29.40
2022-11-09T14:59:18.361Z,27.80
2022-11-09T15:04:23.207Z,33.70
2022-11-09T15:09:46.401Z,38.20
2022-11-09T15:15:04.569Z,36.90
2022-11-09T15:20:08.437Z,21.40
2022-11-09T15:25:31.783Z,32.40
2022-11-09T15:30:41.963Z,39.00
2022-11-09T15:36:00.871Z,34.20
2022-11-09T15:41:12.070Z,34.70
2022-11-09T15:46:22.248Z,32.60
2022-11-09T15:51:26.434Z,33.70
2022-11-09T15:56:30.562Z,37.10
2022-11-09T16:01:34.259Z,38.70
2022-11-09T16:06:42.474Z,29.30
2022-11-09T16:11:51.699Z,34.90
2022-11-09T16:16:55.691Z,40.30
2022-11-09T16:22:01.645Z,38.10
2022-11-09T16:27:12.828Z,36.40
2022-11-09T16:32:26.560Z,33.00
2022-11-09T16:37:33.926Z,37.10
2022-11-09T16:42:38.478Z,28.30
2022-11-09T16:47:47.485Z,29.80
2022-11-09T16:52:51.342Z,38.20
2022-11-09T17:02:10.444Z,31.70
2022-11-09T17:07:16.923Z,35.20
2022-11-09T17:12:25.748Z,40.10
2022-11-09T17:17:34.626Z,39.80
2022-11-09T17:22:46.526Z,43.10
2022-11-09T17:27:55.409Z,40.20
2022-11-09T17:33:05.096Z,35.80
2022-11-09T17:38:12.528Z,33.60
2022-11-09T17:48:27.004Z,43.30
2022-11-09T17:53:33.948Z,42.30
2022-11-09T17:58:42.584Z,43.00
2022-11-09T18:03:50.750Z,36.10
2022-11-09T18:09:25.864Z,34.40
2022-11-09T18:14:24.975Z,39.10
2022-11-09T18:19:36.181Z,33.10
2022-11-09T18:24:45.239Z,32.70
2022-11-09T18:29:51.974Z,37.70
2022-11-09T18:34:59.760Z,33.60
2022-11-09T18:40:12.465Z,30.20
2022-11-09T18:45:23.030Z,36.70
2022-11-09T18:50:31.562Z,32.90
2022-11-09T18:55:40.538Z,34.00
2022-11-09T19:00:45.480Z,37.10
2022-11-09T19:05:49.186Z,41.00
2022-11-09T19:10:52.937Z,34.10
2022-11-09T19:15:58.455Z,39.40
2022-11-09T19:21:03.029Z,34.70
2022-11-09T19:26:07.314Z,38.00
2022-11-09T19:31:17.453Z,43.10
2022-11-09T19:36:32.258Z,38.50
2022-11-09T19:41:36.696Z,34.70
2022-11-09T19:46:41.486Z,35.20
2022-11-09T19:51:44.826Z,39.00
2022-11-09T19:56:50.808Z,38.90
2022-11-09T20:01:56.554Z,30.20
2022-11-09T20:07:00.000Z,39.30
2022-11-09T20:12:23.995Z,42.20
2022-11-09T20:17:28.051Z,30.30
2022-11-09T20:22:32.127Z,36.90
2022-11-09T20:27:36.262Z,33.10
2022-11-09T20:32:40.177Z,40.70
2022-11-09T20:37:43.805Z,37.10
2022-11-09T20:42:47.848Z,45.00
2022-11-09T20:48:10.171Z,35.00
2022-11-09T20:53:15.763Z,38.40
2022-11-09T20:58:19.661Z,37.20
2022-11-09T21:03:23.292Z,44.40
2022-11-09T21:08:27.838Z,41.60
2022-11-09T21:13:31.992Z,33.40
2022-11-09T21:18:36.862Z,30.70
2022-11-09T21:24:00.346Z,42.80
2022-11-09T21:29:24.617Z,40.30
2022-11-09T21:34:35.426Z,40.90
2022-11-09T21:39:42.786Z,38.30
2022-11-09T21:44:47.061Z,44.00
2022-11-09T21:49:51.327Z,35.60
2022-11-09T21:54:54.971Z,51.10
2022-11-09T21:59:59.051Z,39.10
2022-11-09T22:05:03.758Z,36.20
2022-11-09T22:10:11.547Z,44.80
2022-11-09T22:15:34.368Z,42.10
2022-11-09T22:20:55.658Z,45.10
2022-11-09T22:26:02.361Z,47.70
2022-11-09T22:31:08.102Z,40.60
2022-11-09T22:36:14.756Z,39.50
2022-11-09T22:41:18.594Z,45.60
2022-11-09T22:46:22.490Z,41.10
2022-11-09T22:51:26.212Z,42.80
2022-11-09T22:56:29.565Z,53.70
2022-11-09T23:01:33.413Z,47.40
2022-11-09T23:06:36.888Z,38.10
2022-11-09T23:11:41.386Z,44.90
2022-11-09T23:16:45.114Z,46.10
2022-11-09T23:21:48.603Z,47.10
2022-11-09T23:26:51.921Z,44.80
2022-11-09T23:31:57.375Z,43.30
2022-11-09T23:37:00.945Z,42.40
2022-11-09T23:42:05.016Z,48.40
2022-11-09T23:47:08.636Z,45.40
2022-11-09T23:52:12.578Z,35.30
2022-11-09T23:57:16.237Z,44.40
